createdAt,value
2022-08-24T00:01:22.731Z,2.15
2022-08-24T00:03:54.196Z,1.42
2022-08-24T00:06:26.225Z,1.70
2022-08-24T00:08:55.573Z,1.75
2022-08-24T00:11:23.783Z,1.70
2022-08-24T00:13:51.682Z,1.60
2022-08-24T00:16:20.747Z,1.42
2022-08-24T00:18:49.539Z,1.50
2022-08-24T00:21:18.968Z,1.55
2022-08-24T00:23:49.816Z,1.42
2022-08-24T00:26:19.391Z,1.60
2022-08-24T00:28:57.870Z,1.67
2022-08-24T00:31:26.219Z,1.42
2022-08-24T00:33:54.435Z,1.27
2022-08-24T00:36:22.645Z,1.83
2022-08-24T00:38:52.118Z,1.75
2022-08-24T00:41:20.000Z,1.65
2022-08-24T00:43:55.926Z,1.38
2022-08-24T00:46:27.691Z,1.80
2022-08-24T00:49:04.381Z,1.58
2022-08-24T00:51:37.152Z,1.42
2022-08-24T00:54:11.812Z,1.52
2022-08-24T00:56:43.798Z,1.75
2022-08-24T00:59:14.986Z,1.55
2022-08-24T01:01:43.997Z,1.73
2022-08-24T01:04:19.554Z,2.00
2022-08-24T01:06:49.895Z,1.63
2022-08-24T01:09:19.415Z,2.95
2022-08-24T01:11:47.518Z,1.70
2022-08-24T01:14:15.402Z,1.88
2022-08-24T01:17:00.598Z,1.77
2022-08-24T01:19:36.607Z,1.60
2022-08-24T01:22:17.282Z,2.03
2022-08-24T01:24:47.475Z,2.22
2022-08-24T01:27:17.525Z,1.80
2022-08-24T01:29:49.107Z,1.52
2022-08-24T01:32:27.877Z,1.40
2022-08-24T01:34:56.762Z,1.60
2022-08-24T01:37:25.307Z,1.45
2022-08-24T01:39:57.529Z,1.60
2022-08-24T01:42:29.857Z,1.20
2022-08-24T01:44:58.271Z,1.23
2022-08-24T01:47:26.120Z,1.60
2022-08-24T01:49:54.032Z,1.48
2022-08-24T01:52:25.009Z,1.77
2022-08-24T01:54:54.529Z,1.40
2022-08-24T01:57:26.473Z,1.83
2022-08-24T01:59:55.054Z,1.17
2022-08-24T02:02:28.743Z,1.70
2022-08-24T02:04:56.705Z,1.55
2022-08-24T02:07:25.013Z,1.60
2022-08-24T02:09:54.544Z,1.33
2022-08-24T02:12:23.046Z,1.83
2022-08-24T02:14:51.762Z,1.60
2022-08-24T02:17:22.060Z,1.35
2022-08-24T02:19:49.915Z,1.58
2022-08-24T02:22:17.946Z,1.10
2022-08-24T02:24:45.774Z,1.20
2022-08-24T02:27:16.984Z,1.30
2022-08-24T02:29:45.505Z,1.27
2022-08-24T02:32:13.836Z,1.50
2022-08-24T02:34:43.384Z,1.50
2022-08-24T02:37:11.238Z,1.08
2022-08-24T02:39:39.090Z,1.20
2022-08-24T02:42:07.585Z,1.25
2022-08-24T02:44:36.787Z,1.58
2022-08-24T02:47:04.865Z,1.45
2022-08-24T02:49:33.033Z,1.40
2022-08-24T02:52:00.904Z,1.50
2022-08-24T02:54:28.943Z,1.35
2022-08-24T02:56:56.757Z,1.00
2022-08-24T02:59:24.978Z,1.15
2022-08-24T03:01:54.559Z,1.25
2022-08-24T03:04:22.554Z,1.17
2022-08-24T03:06:51.591Z,1.15
2022-08-24T03:09:19.848Z,1.13
2022-08-24T03:11:51.995Z,1.10
2022-08-24T03:14:19.917Z,1.20
2022-08-24T03:16:47.734Z,1.08
2022-08-24T03:19:17.218Z,1.30
2022-08-24T03:21:45.055Z,1.08
2022-08-24T03:24:13.098Z,1.02
2022-08-24T03:26:44.315Z,0.90
2022-08-24T03:29:12.365Z,1.17
2022-08-24T03:31:40.237Z,0.98
2022-08-24T03:34:08.416Z,1.10
2022-08-24T03:36:37.583Z,1.20
2022-08-24T03:39:05.546Z,1.60
2022-08-24T03:41:33.802Z,1.23
2022-08-24T03:44:05.235Z,1.30
2022-08-24T03:46:37.404Z,1.45
2022-08-24T03:49:08.186Z,1.05
2022-08-24T03:51:38.830Z,1.08
2022-08-24T03:54:09.604Z,1.10
2022-08-24T03:56:37.553Z,1.00
2022-08-24T03:59:05.809Z,1.10
2022-08-24T04:01:33.667Z,0.88
2022-08-24T04:04:01.887Z,1.48
2022-08-24T04:06:30.401Z,1.23
2022-08-24T04:08:59.653Z,1.42
2022-08-24T04:11:30.461Z,1.25
2022-08-24T04:13:59.416Z,1.23
2022-08-24T04:16:29.478Z,0.95
2022-08-24T04:18:58.377Z,1.33
2022-08-24T04:21:28.549Z,0.90
2022-08-24T04:23:57.529Z,1.20
2022-08-24T04:26:44.866Z,1.15
2022-08-24T04:29:16.844Z,1.67
2022-08-24T04:31:45.293Z,1.48
2022-08-24T04:34:15.028Z,1.30
2022-08-24T04:36:43.890Z,1.58
2022-08-24T04:39:12.122Z,1.20
2022-08-24T04:41:42.929Z,1.25
2022-08-24T04:44:11.373Z,1.40
2022-08-24T04:46:40.716Z,1.83
2022-08-24T04:49:08.560Z,1.35
2022-08-24T04:51:36.938Z,1.23
2022-08-24T04:54:05.630Z,1.38
2022-08-24T04:56:33.861Z,1.88
2022-08-24T04:59:03.859Z,1.48
2022-08-24T05:01:32.962Z,1.63
2022-08-24T05:04:01.187Z,1.58
2022-08-24T05:06:32.401Z,1.73
2022-08-24T05:09:01.714Z,1.90
2022-08-24T05:11:30.001Z,1.60
2022-08-24T05:13:58.623Z,1.77
2022-08-24T05:16:30.714Z,2.25
2022-08-24T05:19:00.631Z,1.55
2022-08-24T05:21:30.881Z,2.45
2022-08-24T05:23:58.799Z,1.40
2022-08-24T05:26:28.546Z,2.20
2022-08-24T05:28:57.879Z,1.40
2022-08-24T05:31:29.445Z,1.65
2022-08-24T05:33:57.980Z,1.88
2022-08-24T05:36:30.516Z,2.00
2022-08-24T05:39:01.555Z,1.58
2022-08-24T05:41:30.011Z,1.70
2022-08-24T05:43:59.821Z,2.90
2022-08-24T05:46:31.874Z,1.60
2022-08-24T05:49:01.256Z,2.10
2022-08-24T05:51:29.938Z,2.35
2022-08-24T05:53:59.229Z,2.13
2022-08-24T05:56:31.793Z,2.42
2022-08-24T05:59:00.172Z,1.92
2022-08-24T06:01:29.778Z,2.05
2022-08-24T06:03:58.838Z,1.83
2022-08-24T06:06:28.010Z,1.65
2022-08-24T06:08:57.588Z,1.40
2022-08-24T06:11:30.215Z,1.27
2022-08-24T06:14:01.097Z,1.80
2022-08-24T06:16:30.498Z,2.25
2022-08-24T06:18:58.707Z,2.90
2022-08-24T06:21:28.737Z,1.98
2022-08-24T06:23:57.258Z,2.45
2022-08-24T06:26:43.094Z,1.85
2022-08-24T06:29:13.242Z,1.40
2022-08-24T06:31:46.798Z,1.40
2022-08-24T06:34:17.898Z,1.80
2022-08-24T06:36:46.358Z,2.00
2022-08-24T06:39:15.003Z,1.92
2022-08-24T06:41:44.197Z,1.30
2022-08-24T06:44:12.377Z,1.35
2022-08-24T06:46:40.549Z,1.33
2022-08-24T06:49:09.871Z,1.27
2022-08-24T06:51:37.677Z,1.55
2022-08-24T06:54:06.853Z,1.13
2022-08-24T06:56:36.745Z,1.45
2022-08-24T06:59:04.981Z,1.70
2022-08-24T07:01:33.169Z,1.80
2022-08-24T07:04:00.991Z,1.73
2022-08-24T07:06:30.167Z,1.90
2022-08-24T07:08:58.084Z,1.95
2022-08-24T07:11:26.093Z,1.70
2022-08-24T07:13:53.854Z,2.72
2022-08-24T07:16:22.499Z,3.17
2022-08-24T07:18:51.347Z,3.85
2022-08-24T07:21:19.979Z,3.55
2022-08-24T07:23:49.928Z,2.88
2022-08-24T07:26:22.328Z,3.20
2022-08-24T07:28:51.511Z,3.13
2022-08-24T07:31:21.212Z,3.05
2022-08-24T07:33:49.712Z,3.97
2022-08-24T07:36:22.435Z,17.02
2022-08-24T07:38:53.530Z,10.25
2022-08-24T07:44:11.282Z,11.48
2022-08-24T07:46:40.122Z,10.98
2022-08-24T07:49:28.042Z,16.00
2022-08-24T07:51:57.179Z,12.00
2022-08-24T07:54:27.572Z,11.82
2022-08-24T07:56:55.685Z,13.18
2022-08-24T07:59:23.790Z,11.75
2022-08-24T08:01:52.951Z,12.05
2022-08-24T08:04:25.317Z,10.95
2022-08-24T08:06:53.496Z,12.38
2022-08-24T08:09:21.858Z,13.93
2022-08-24T08:11:51.184Z,13.05
2022-08-24T08:14:19.042Z,11.40
2022-08-24T08:16:47.086Z,12.85
2022-08-24T08:19:14.917Z,11.63
2022-08-24T08:22:02.136Z,10.65
2022-08-24T08:24:31.321Z,11.40
2022-08-24T08:27:00.797Z,11.20
2022-08-24T08:29:32.063Z,10.65
2022-08-24T08:32:00.503Z,11.55
2022-08-24T08:34:28.805Z,11.57
2022-08-24T08:36:56.780Z,11.63
2022-08-24T08:39:25.831Z,12.18
2022-08-24T08:42:30.269Z,11.48
2022-08-24T08:45:08.913Z,11.18
2022-08-24T08:48:05.224Z,11.48
2022-08-24T08:50:39.858Z,11.77
2022-08-24T08:53:41.867Z,12.48
2022-08-24T08:56:20.824Z,13.23
2022-08-24T08:59:04.237Z,11.57
2022-08-24T09:01:46.508Z,12.80
2022-08-24T09:04:47.341Z,13.15
2022-08-24T09:07:28.080Z,11.57
2022-08-24T09:10:21.849Z,12.18
2022-08-24T09:13:04.251Z,10.00
2022-08-24T09:15:57.648Z,9.90
2022-08-24T09:18:41.471Z,10.32
2022-08-24T09:21:35.308Z,8.57
2022-08-24T09:24:20.837Z,7.50
2022-08-24T09:29:45.727Z,6.03
2022-08-24T09:32:35.608Z,4.78
2022-08-24T09:35:05.601Z,5.60
2022-08-24T09:37:57.672Z,5.07
2022-08-24T09:40:38.034Z,3.97
2022-08-24T09:43:37.889Z,3.22
2022-08-24T09:46:41.367Z,4.43
2022-08-24T09:49:39.554Z,3.45
2022-08-24T09:52:36.249Z,2.85
2022-08-24T09:55:36.529Z,3.38
2022-08-24T09:58:19.781Z,5.18
2022-08-24T10:00:52.245Z,3.53
2022-08-24T10:03:37.884Z,3.05
2022-08-24T10:06:18.115Z,3.20
2022-08-24T10:09:02.984Z,3.80
2022-08-24T10:11:40.471Z,2.90
2022-08-24T10:14:17.683Z,2.22
2022-08-24T10:16:56.309Z,2.03
2022-08-24T10:19:41.296Z,2.00
2022-08-24T10:22:20.921Z,1.50
2022-08-24T10:25:04.243Z,1.55
2022-08-24T10:27:46.602Z,1.98
2022-08-24T10:30:42.230Z,1.60
2022-08-24T10:33:18.873Z,1.65
2022-08-24T10:36:23.547Z,1.33
2022-08-24T10:39:15.124Z,1.10
2022-08-24T10:42:33.613Z,1.60
2022-08-24T10:45:08.297Z,1.27
2022-08-24T10:47:37.636Z,1.52
2022-08-24T10:50:32.372Z,1.55
2022-08-24T10:53:25.420Z,1.40
2022-08-24T10:56:17.533Z,1.00
2022-08-24T10:58:52.065Z,1.45
2022-08-24T11:01:27.756Z,1.40
2022-08-24T11:04:04.417Z,1.08
2022-08-24T11:06:34.713Z,1.75
2022-08-24T11:09:09.483Z,1.40
2022-08-24T11:11:40.416Z,1.58
2022-08-24T11:14:24.449Z,1.30
2022-08-24T11:16:57.548Z,1.27
2022-08-24T11:19:35.034Z,1.10
2022-08-24T11:22:05.673Z,1.05
2022-08-24T11:24:43.242Z,0.90
2022-08-24T11:27:30.943Z,1.48
2022-08-24T11:30:03.930Z,1.25
2022-08-24T11:32:38.791Z,1.05
2022-08-24T11:35:15.955Z,1.05
2022-08-24T11:37:45.518Z,1.30
2022-08-24T11:40:16.530Z,0.90
2022-08-24T11:43:06.096Z,1.50
2022-08-24T11:45:42.799Z,1.02
2022-08-24T11:48:27.255Z,0.90
2022-08-24T11:51:04.854Z,0.80
2022-08-24T11:56:21.613Z,0.80
2022-08-24T11:59:02.685Z,1.20
2022-08-24T12:01:43.557Z,1.20
2022-08-24T12:04:30.362Z,1.20
2022-08-24T12:09:48.071Z,1.60
2022-08-24T12:12:23.176Z,1.15
2022-08-24T12:15:00.507Z,1.00
2022-08-24T12:17:38.165Z,0.88
2022-08-24T12:20:16.440Z,1.27
2022-08-24T12:22:44.927Z,1.40
2022-08-24T12:25:28.390Z,1.10
2022-08-24T12:27:58.512Z,1.00
2022-08-24T12:30:28.743Z,1.35
2022-08-24T12:33:01.913Z,1.52
2022-08-24T12:35:33.496Z,1.45
2022-08-24T12:38:09.145Z,1.38
2022-08-24T12:40:41.674Z,1.00
2022-08-24T12:43:14.872Z,1.10
2022-08-24T12:45:43.316Z,1.10
2022-08-24T12:48:20.038Z,1.00
2022-08-24T12:51:04.123Z,0.80
2022-08-24T12:54:04.792Z,1.00
2022-08-24T12:56:57.451Z,1.70
2022-08-24T12:59:29.450Z,1.20
2022-08-24T13:02:03.132Z,1.25
2022-08-24T13:04:44.571Z,1.00
2022-08-24T13:07:27.838Z,1.10
2022-08-24T13:10:09.104Z,1.17
2022-08-24T13:13:13.698Z,1.23
2022-08-24T13:16:01.078Z,0.95
2022-08-24T13:19:09.211Z,1.00
2022-08-24T13:21:45.565Z,1.08
2022-08-24T13:24:52.917Z,1.55
2022-08-24T13:28:03.779Z,1.58
2022-08-24T13:30:38.864Z,0.90
2022-08-24T13:33:13.180Z,1.05
2022-08-24T13:36:07.382Z,0.80
2022-08-24T13:39:04.771Z,1.30
2022-08-24T13:41:47.878Z,1.10
2022-08-24T13:44:25.633Z,1.38
2022-08-24T13:47:04.225Z,1.20
2022-08-24T13:50:01.856Z,1.45
2022-08-24T13:52:40.467Z,1.33
2022-08-24T13:55:29.785Z,1.00
2022-08-24T13:58:12.266Z,1.20
2022-08-24T14:00:45.391Z,0.98
2022-08-24T14:03:54.016Z,1.30
2022-08-24T14:06:33.203Z,1.23
2022-08-24T14:09:19.385Z,1.20
2022-08-24T14:12:07.573Z,1.05
2022-08-24T14:15:06.812Z,1.08
2022-08-24T14:17:55.027Z,1.25
2022-08-24T14:20:51.206Z,1.10
2022-08-24T14:23:28.576Z,1.20
2022-08-24T14:26:29.699Z,1.30
2022-08-24T14:29:46.582Z,1.27
2022-08-24T14:32:50.345Z,1.52
2022-08-24T14:35:33.332Z,1.20
2022-08-24T14:38:22.909Z,1.25
2022-08-24T14:41:08.634Z,1.20
2022-08-24T14:44:04.014Z,1.23
2022-08-24T14:46:39.255Z,1.08
2022-08-24T14:49:16.382Z,1.00
2022-08-24T14:52:04.365Z,1.15
2022-08-24T14:54:42.585Z,1.50
2022-08-24T14:57:39.531Z,1.45
2022-08-24T15:00:14.851Z,1.50
2022-08-24T15:03:09.547Z,1.17
2022-08-24T15:05:42.907Z,1.25
2022-08-24T15:08:16.309Z,1.23
2022-08-24T15:10:57.425Z,1.15
2022-08-24T15:13:29.778Z,1.52
2022-08-24T15:16:04.658Z,1.35
2022-08-24T15:18:41.143Z,1.98
2022-08-24T15:21:30.490Z,1.40
2022-08-24T15:24:10.201Z,1.65
2022-08-24T15:26:51.271Z,1.00
2022-08-24T15:29:22.464Z,1.55
2022-08-24T15:32:01.560Z,1.45
2022-08-24T15:34:45.525Z,1.60
2022-08-24T15:37:16.110Z,1.20
2022-08-24T15:39:44.875Z,1.20
2022-08-24T15:42:15.521Z,1.40
2022-08-24T15:44:46.545Z,1.30
2022-08-24T15:47:22.478Z,1.17
2022-08-24T15:49:55.604Z,1.27
2022-08-24T15:52:46.310Z,1.13
2022-08-24T15:55:29.056Z,1.05
2022-08-24T15:57:58.094Z,1.40
2022-08-24T16:00:55.293Z,1.50
2022-08-24T16:03:28.960Z,1.48
2022-08-24T16:06:17.164Z,1.67
2022-08-24T16:08:57.613Z,1.20
2022-08-24T16:11:33.503Z,1.20
2022-08-24T16:14:02.424Z,2.20
2022-08-24T16:16:38.474Z,1.35
2022-08-24T16:19:18.601Z,1.60
2022-08-24T16:21:55.000Z,1.35
2022-08-24T16:24:31.245Z,1.15
2022-08-24T16:27:04.237Z,1.67
2022-08-24T16:29:55.877Z,1.63
2022-08-24T16:32:32.365Z,1.33
2022-08-24T16:35:20.628Z,1.40
2022-08-24T16:37:49.018Z,1.50
2022-08-24T16:40:16.963Z,1.40
2022-08-24T16:42:44.811Z,1.65
2022-08-24T16:45:17.314Z,1.25
2022-08-24T16:47:46.852Z,4.03
2022-08-24T16:50:19.145Z,39.65
2022-08-24T16:52:47.493Z,9.05
2022-08-24T16:55:15.305Z,6.40
2022-08-24T16:57:44.214Z,4.15
2022-08-24T17:00:17.136Z,2.83
2022-08-24T17:02:46.217Z,2.28
2022-08-24T17:05:14.244Z,4.10
2022-08-24T17:07:44.944Z,2.80
2022-08-24T17:10:15.861Z,1.88
2022-08-24T17:12:43.678Z,2.97
2022-08-24T17:15:16.253Z,1.85
2022-08-24T17:17:56.139Z,2.30
2022-08-24T17:20:24.340Z,2.97
2022-08-24T17:22:53.517Z,2.47
2022-08-24T17:25:21.362Z,2.20
2022-08-24T17:27:49.374Z,20.00
2022-08-24T17:30:18.526Z,12.20
2022-08-24T17:32:48.076Z,5.80
2022-08-24T17:35:16.057Z,3.80
2022-08-24T17:37:44.515Z,2.75
2022-08-24T17:40:17.151Z,2.70
2022-08-24T17:42:51.334Z,1.65
2022-08-24T17:45:23.006Z,2.30
2022-08-24T17:47:52.436Z,2.08
2022-08-24T17:50:23.628Z,1.95
2022-08-24T17:52:57.121Z,2.05
2022-08-24T17:55:30.105Z,3.25
2022-08-24T17:57:59.109Z,3.25
2022-08-24T18:00:26.892Z,2.92
2022-08-24T18:02:54.758Z,1.70
2022-08-24T18:05:22.530Z,1.55
2022-08-24T18:07:54.698Z,1.60
2022-08-24T18:10:26.153Z,1.88
2022-08-24T18:12:55.974Z,1.75
2022-08-24T18:15:35.550Z,1.58
2022-08-24T18:18:08.643Z,1.63
2022-08-24T18:20:39.210Z,2.20
2022-08-24T18:23:11.602Z,2.45
2022-08-24T18:25:44.988Z,1.73
2022-08-24T18:28:16.106Z,2.15
2022-08-24T18:30:44.949Z,1.60
2022-08-24T18:33:12.988Z,1.88
2022-08-24T18:35:40.921Z,1.70
2022-08-24T18:38:08.718Z,2.20
2022-08-24T18:40:36.948Z,1.63
2022-08-24T18:43:05.448Z,1.85
2022-08-24T18:45:35.662Z,1.70
2022-08-24T18:48:04.142Z,1.45
2022-08-24T18:50:33.330Z,1.73
2022-08-24T18:53:02.156Z,1.65
2022-08-24T18:55:30.837Z,1.90
2022-08-24T18:57:58.633Z,1.67
2022-08-24T19:00:26.616Z,1.63
2022-08-24T19:02:59.156Z,1.75
2022-08-24T19:05:27.322Z,2.20
2022-08-24T19:07:55.798Z,1.73
2022-08-24T19:10:26.090Z,2.05
2022-08-24T19:12:57.476Z,1.40
2022-08-24T19:15:35.887Z,2.15
2022-08-24T19:18:11.242Z,1.50
2022-08-24T19:20:44.726Z,2.05
2022-08-24T19:23:21.607Z,1.90
2022-08-24T19:25:49.993Z,1.83
2022-08-24T19:28:18.754Z,2.00
2022-08-24T19:30:47.048Z,2.35
2022-08-24T19:33:24.265Z,2.05
2022-08-24T19:35:53.420Z,1.90
2022-08-24T19:38:25.871Z,1.83
2022-08-24T19:40:55.546Z,1.75
2022-08-24T19:43:26.176Z,1.92
2022-08-24T19:46:05.724Z,2.70
2022-08-24T19:48:40.253Z,2.50
2022-08-24T19:51:11.711Z,2.55
2022-08-24T19:53:39.770Z,1.90
2022-08-24T19:56:08.837Z,2.13
2022-08-24T19:58:45.515Z,1.95
2022-08-24T20:01:18.337Z,2.15
2022-08-24T20:03:48.107Z,2.47
2022-08-24T20:06:17.456Z,1.70
2022-08-24T20:08:48.512Z,2.38
2022-08-24T20:11:17.238Z,3.75
2022-08-24T20:13:45.467Z,2.22
2022-08-24T20:16:17.051Z,2.45
2022-08-24T20:18:45.930Z,2.08
2022-08-24T20:21:15.895Z,2.35
2022-08-24T20:23:45.424Z,2.20
2022-08-24T20:26:14.310Z,1.85
2022-08-24T20:28:46.272Z,2.38
2022-08-24T20:31:14.822Z,2.65
2022-08-24T20:33:44.125Z,2.17
2022-08-24T20:36:25.600Z,2.25
2022-08-24T20:38:56.592Z,2.38
2022-08-24T20:41:26.780Z,2.15
2022-08-24T20:43:55.008Z,2.83
2022-08-24T20:46:23.118Z,2.40
2022-08-24T20:48:55.610Z,2.10
2022-08-24T20:51:25.565Z,2.55
2022-08-24T20:53:53.929Z,2.30
2022-08-24T20:56:31.200Z,2.65
2022-08-24T20:59:00.180Z,2.50
2022-08-24T21:01:28.220Z,2.50
2022-08-24T21:03:58.459Z,2.60
2022-08-24T21:06:30.899Z,2.35
2022-08-24T21:08:58.739Z,2.83
2022-08-24T21:11:26.783Z,2.40
2022-08-24T21:13:54.596Z,2.67
2022-08-24T21:16:22.543Z,2.05
2022-08-24T21:18:50.794Z,2.13
2022-08-24T21:21:18.793Z,2.55
2022-08-24T21:23:47.976Z,2.30
2022-08-24T21:26:20.206Z,2.10
2022-08-24T21:28:49.902Z,2.40
2022-08-24T21:31:18.171Z,2.42
2022-08-24T21:34:03.396Z,1.83
2022-08-24T21:36:32.247Z,2.53
2022-08-24T21:39:01.458Z,2.20
2022-08-24T21:41:29.525Z,2.55
2022-08-24T21:43:57.891Z,2.03
2022-08-24T21:46:30.849Z,2.47
2022-08-24T21:48:58.976Z,2.50
2022-08-24T21:51:26.806Z,2.28
2022-08-24T21:53:57.446Z,2.53
2022-08-24T21:56:31.636Z,2.53
2022-08-24T21:59:00.249Z,2.63
2022-08-24T22:01:28.899Z,2.55
2022-08-24T22:03:58.217Z,2.70
2022-08-24T22:06:31.051Z,2.78
2022-08-24T22:08:59.590Z,2.78
2022-08-24T22:11:30.164Z,2.60
2022-08-24T22:13:58.245Z,3.00
2022-08-24T22:16:26.748Z,2.30
2022-08-24T22:18:55.445Z,2.50
2022-08-24T22:21:27.874Z,2.55
2022-08-24T22:23:56.893Z,2.50
2022-08-24T22:26:26.194Z,2.45
2022-08-24T22:28:56.709Z,2.33
2022-08-24T22:31:27.522Z,2.80
2022-08-24T22:33:56.201Z,2.53
2022-08-24T22:36:25.410Z,2.58
2022-08-24T22:38:54.981Z,2.28
2022-08-24T22:41:23.465Z,2.75
2022-08-24T22:44:09.136Z,2.65
2022-08-24T22:49:08.983Z,2.80
2022-08-24T22:51:38.242Z,2.78
2022-08-24T22:54:06.498Z,3.15
2022-08-24T22:56:38.987Z,3.17
2022-08-24T22:59:08.749Z,2.88
2022-08-24T23:01:40.447Z,3.03
2022-08-24T23:04:11.627Z,2.90
2022-08-24T23:06:40.891Z,2.47
2022-08-24T23:09:09.940Z,2.95
2022-08-24T23:11:38.272Z,2.63
2022-08-24T23:14:09.342Z,3.00
2022-08-24T23:16:40.273Z,2.95
2022-08-24T23:19:26.782Z,3.35
2022-08-24T23:21:55.547Z,2.63
2022-08-24T23:24:23.762Z,2.38
2022-08-24T23:26:52.793Z,3.17
2022-08-24T23:29:21.712Z,2.65
2022-08-24T23:31:50.983Z,2.83
2022-08-24T23:34:19.115Z,3.03
2022-08-24T23:36:47.053Z,2.58
2022-08-24T23:39:15.082Z,2.28
2022-08-24T23:41:46.130Z,3.17
2022-08-24T23:44:17.619Z,3.00
2022-08-24T23:46:46.935Z,2.50
2022-08-24T23:49:18.356Z,2.40
2022-08-24T23:51:46.984Z,2.65
2022-08-24T23:54:14.998Z,2.47
2022-08-24T23:56:46.190Z,2.25
2022-08-24T23:59:20.138Z,2.45
